IBS2026 LEMD-LEVX
Flight info
| Callsign | IBS2026 |
|---|---|
| Flight time | 0h 48m |
| Altitude | 29000 |
| Route | ZMR N733 DESAT/N0462F300 DCT BARKO |
| Aircraft | A320/M-SDE3FGHIRWY/LB1 |
Departure
| Time | 2026-05-06 02:24 |
|---|---|
| Airport | Adolfo Suárez Madrid–Barajas Airport (LEMD) |
Arrival
| Time | 2026-05-06 03:13 |
|---|---|
| Airport | Vigo Airport (LEVX) |
| Time | Latitude | Longitude | Altitude | Speed | Heading |
|---|---|---|---|---|---|
| 2026-05-06 01:49 | 40.49189 | -3.58964 | 2034 ft | 0 kts | 271° |
| 2026-05-06 02:15 | 40.49189 | -3.58954 | 2022 ft | 4 kts | 271° |
| 2026-05-06 02:16 | 40.49187 | -3.58918 | 2026 ft | 4 kts | 282° |
| 2026-05-06 02:16 | 40.49178 | -3.58888 | 2031 ft | 4 kts | 323° |
| 2026-05-06 02:16 | 40.49167 | -3.58881 | 2033 ft | 0 kts | 1° |
| 2026-05-06 02:19 | 40.49194 | -3.58880 | 2026 ft | 7 kts | 0° |
| 2026-05-06 02:19 | 40.49239 | -3.58832 | 2027 ft | 10 kts | 81° |
| 2026-05-06 02:19 | 40.49240 | -3.58752 | 2026 ft | 8 kts | 91° |
| 2026-05-06 02:19 | 40.49240 | -3.58653 | 2031 ft | 15 kts | 88° |
| 2026-05-06 02:20 | 40.49243 | -3.58214 | 2009 ft | 33 kts | 90° |
| 2026-05-06 02:20 | 40.49244 | -3.57975 | 2000 ft | 26 kts | 90° |
| 2026-05-06 02:20 | 40.49244 | -3.57732 | 1991 ft | 25 kts | 90° |
| 2026-05-06 02:21 | 40.49259 | -3.57587 | 1987 ft | 15 kts | 67° |
| 2026-05-06 02:21 | 40.49263 | -3.57575 | 1986 ft | 0 kts | 66° |
| 2026-05-06 02:22 | 40.49266 | -3.57565 | 1987 ft | 6 kts | 66° |
| 2026-05-06 02:22 | 40.49308 | -3.57475 | 1985 ft | 13 kts | 41° |
| 2026-05-06 02:23 | 40.49399 | -3.57452 | 1983 ft | 14 kts | 0° |
| 2026-05-06 02:23 | 40.49422 | -3.57453 | 1983 ft | 0 kts | 359° |
| 2026-05-06 02:23 | 40.49545 | -3.57455 | 1984 ft | 52 kts | 359° |
| 2026-05-06 02:23 | 40.50130 | -3.57459 | 1988 ft | 115 kts | 360° |
| 2026-05-06 02:24 | 40.51115 | -3.57467 | 1998 ft | 162 kts | 0° |
| 2026-05-06 02:24 | 40.52279 | -3.57424 | 2462 ft | 172 kts | 2° |
| 2026-05-06 02:24 | 40.53529 | -3.57382 | 2938 ft | 186 kts | 1° |
| 2026-05-06 02:24 | 40.54876 | -3.57349 | 3328 ft | 204 kts | 360° |
| 2026-05-06 02:25 | 40.56362 | -3.57382 | 3862 ft | 219 kts | 358° |
| 2026-05-06 02:25 | 40.57889 | -3.57429 | 4747 ft | 220 kts | 358° |
| 2026-05-06 02:25 | 40.59430 | -3.57440 | 5571 ft | 223 kts | 4° |
| 2026-05-06 02:25 | 40.60943 | -3.56960 | 6372 ft | 226 kts | 22° |
| 2026-05-06 02:26 | 40.62381 | -3.56091 | 7127 ft | 229 kts | 24° |
| 2026-05-06 02:26 | 40.63896 | -3.55428 | 7836 ft | 232 kts | 1° |
| 2026-05-06 02:26 | 40.65476 | -3.55799 | 8552 ft | 234 kts | 340° |
| 2026-05-06 02:26 | 40.67079 | -3.56234 | 9301 ft | 239 kts | 354° |
| 2026-05-06 02:27 | 40.68759 | -3.56248 | 10048 ft | 243 kts | 0° |
| 2026-05-06 02:27 | 40.70459 | -3.56129 | 10769 ft | 246 kts | 1° |
| 2026-05-06 02:27 | 40.72170 | -3.56166 | 11490 ft | 246 kts | 346° |
| 2026-05-06 02:27 | 40.73752 | -3.56960 | 12214 ft | 245 kts | 324° |
| 2026-05-06 02:28 | 40.75018 | -3.58570 | 12513 ft | 265 kts | 301° |
| 2026-05-06 02:28 | 40.75950 | -3.60778 | 12752 ft | 287 kts | 297° |
| 2026-05-06 02:28 | 40.76940 | -3.63193 | 12966 ft | 311 kts | 297° |
| 2026-05-06 02:28 | 40.78012 | -3.65789 | 13137 ft | 334 kts | 298° |
| 2026-05-06 02:29 | 40.79165 | -3.68560 | 13355 ft | 353 kts | 298° |
| 2026-05-06 02:29 | 40.80364 | -3.71427 | 13929 ft | 360 kts | 298° |
| 2026-05-06 02:29 | 40.81579 | -3.74326 | 14559 ft | 362 kts | 298° |
| 2026-05-06 02:29 | 40.82805 | -3.77252 | 15216 ft | 364 kts | 298° |
| 2026-05-06 02:30 | 40.84034 | -3.80185 | 15880 ft | 366 kts | 297° |
| 2026-05-06 02:30 | 40.85267 | -3.83132 | 16558 ft | 368 kts | 297° |
| 2026-05-06 02:30 | 40.86512 | -3.86109 | 17187 ft | 370 kts | 297° |
| 2026-05-06 02:30 | 40.87761 | -3.89095 | 17831 ft | 372 kts | 297° |
| 2026-05-06 02:31 | 40.89012 | -3.92093 | 18449 ft | 374 kts | 297° |
| 2026-05-06 02:31 | 40.90270 | -3.95111 | 18978 ft | 375 kts | 297° |
| 2026-05-06 02:31 | 40.91529 | -3.98139 | 19519 ft | 377 kts | 297° |
| 2026-05-06 02:31 | 40.92791 | -4.01178 | 20056 ft | 378 kts | 296° |
| 2026-05-06 02:32 | 40.94061 | -4.04246 | 20609 ft | 380 kts | 296° |
| 2026-05-06 02:32 | 40.95333 | -4.07317 | 21107 ft | 382 kts | 296° |
| 2026-05-06 02:32 | 40.96613 | -4.10407 | 21632 ft | 383 kts | 296° |
| 2026-05-06 02:32 | 40.97896 | -4.13509 | 22136 ft | 385 kts | 296° |
| 2026-05-06 02:33 | 40.99180 | -4.16626 | 22643 ft | 387 kts | 296° |
| 2026-05-06 02:33 | 41.00034 | -4.18699 | 22960 ft | 388 kts | 296° |
| 2026-05-06 02:33 | 41.03001 | -4.26065 | 23972 ft | 391 kts | 294° |
| 2026-05-06 02:34 | 41.04211 | -4.29302 | 24341 ft | 393 kts | 293° |
| 2026-05-06 02:34 | 41.05399 | -4.32564 | 24736 ft | 394 kts | 293° |
| 2026-05-06 02:34 | 41.06588 | -4.35849 | 25103 ft | 396 kts | 293° |
| 2026-05-06 02:34 | 41.07787 | -4.39149 | 25463 ft | 398 kts | 293° |
| 2026-05-06 02:35 | 41.08994 | -4.42459 | 25827 ft | 400 kts | 293° |
| 2026-05-06 02:35 | 41.10216 | -4.45783 | 26174 ft | 402 kts | 293° |
| 2026-05-06 02:35 | 41.11448 | -4.49118 | 26507 ft | 404 kts | 293° |
| 2026-05-06 02:35 | 41.12690 | -4.52472 | 26825 ft | 406 kts | 293° |
| 2026-05-06 02:36 | 41.13938 | -4.55838 | 27146 ft | 408 kts | 293° |
| 2026-05-06 02:36 | 41.15189 | -4.59221 | 27443 ft | 410 kts | 293° |
| 2026-05-06 02:36 | 41.16445 | -4.62631 | 27722 ft | 412 kts | 293° |
| 2026-05-06 02:36 | 41.17702 | -4.66060 | 28020 ft | 414 kts | 293° |
| 2026-05-06 02:37 | 41.18961 | -4.69502 | 28328 ft | 416 kts | 293° |
| 2026-05-06 02:37 | 41.20222 | -4.72949 | 28742 ft | 414 kts | 293° |
| 2026-05-06 02:37 | 41.21479 | -4.76384 | 29005 ft | 414 kts | 293° |
| 2026-05-06 02:38 | 41.23980 | -4.83221 | 29036 ft | 410 kts | 293° |
| 2026-05-06 02:38 | 41.26455 | -4.90011 | 29042 ft | 411 kts | 293° |
| 2026-05-06 02:39 | 41.28954 | -4.96869 | 29037 ft | 413 kts | 293° |
| 2026-05-06 02:39 | 41.31452 | -5.03763 | 29047 ft | 414 kts | 293° |
| 2026-05-06 02:40 | 41.33529 | -5.09510 | 29042 ft | 414 kts | 293° |
| 2026-05-06 02:40 | 41.36026 | -5.16413 | 29042 ft | 414 kts | 293° |
| 2026-05-06 02:41 | 41.38517 | -5.23335 | 29041 ft | 414 kts | 293° |
| 2026-05-06 02:41 | 41.40998 | -5.30252 | 29038 ft | 414 kts | 293° |
| 2026-05-06 02:42 | 41.43482 | -5.37177 | 29033 ft | 414 kts | 293° |
| 2026-05-06 02:42 | 41.45964 | -5.44115 | 29029 ft | 415 kts | 294° |
| 2026-05-06 02:43 | 41.48446 | -5.51084 | 29026 ft | 416 kts | 294° |
| 2026-05-06 02:43 | 41.50922 | -5.58062 | 29027 ft | 416 kts | 294° |
| 2026-05-06 02:44 | 41.53481 | -5.64985 | 29029 ft | 417 kts | 297° |
| 2026-05-06 02:44 | 41.56639 | -5.71455 | 29018 ft | 419 kts | 303° |
| 2026-05-06 02:45 | 41.60117 | -5.77714 | 29024 ft | 420 kts | 304° |
| 2026-05-06 02:45 | 41.63561 | -5.84031 | 29057 ft | 420 kts | 303° |
| 2026-05-06 02:46 | 41.66913 | -5.90454 | 29049 ft | 421 kts | 302° |
| 2026-05-06 02:46 | 41.70235 | -5.96900 | 29050 ft | 421 kts | 302° |
| 2026-05-06 02:47 | 41.73570 | -6.03345 | 29057 ft | 421 kts | 303° |
| 2026-05-06 02:47 | 41.76913 | -6.09799 | 29039 ft | 421 kts | 303° |
| 2026-05-06 02:48 | 41.79241 | -6.14305 | 29040 ft | 421 kts | 303° |
| 2026-05-06 02:48 | 41.80800 | -6.17334 | 29042 ft | 421 kts | 303° |
| 2026-05-06 02:49 | 41.84104 | -6.23759 | 29063 ft | 421 kts | 303° |
| 2026-05-06 02:49 | 41.87454 | -6.30273 | 29061 ft | 421 kts | 303° |
| 2026-05-06 02:50 | 41.90779 | -6.36745 | 29061 ft | 421 kts | 303° |
| 2026-05-06 02:50 | 41.93216 | -6.41497 | 29059 ft | 421 kts | 303° |
| 2026-05-06 02:51 | 41.94959 | -6.44910 | 29060 ft | 421 kts | 303° |
| 2026-05-06 02:51 | 41.98270 | -6.51401 | 29044 ft | 421 kts | 303° |
| 2026-05-06 02:52 | 42.01583 | -6.57891 | 29066 ft | 422 kts | 303° |
| 2026-05-06 02:52 | 42.04898 | -6.64414 | 29066 ft | 422 kts | 303° |
| 2026-05-06 02:53 | 42.08196 | -6.70939 | 29064 ft | 422 kts | 303° |
| 2026-05-06 02:53 | 42.11500 | -6.77472 | 29063 ft | 422 kts | 303° |
| 2026-05-06 02:54 | 42.14780 | -6.83960 | 29061 ft | 422 kts | 303° |
| 2026-05-06 02:54 | 42.16431 | -6.87240 | 28778 ft | 424 kts | 303° |
| 2026-05-06 02:54 | 42.18089 | -6.90531 | 28519 ft | 425 kts | 303° |
| 2026-05-06 02:54 | 42.19601 | -6.93958 | 28241 ft | 425 kts | 296° |
| 2026-05-06 02:55 | 42.20689 | -6.97669 | 27972 ft | 427 kts | 287° |
| 2026-05-06 02:55 | 42.21454 | -7.01546 | 27711 ft | 428 kts | 285° |
| 2026-05-06 02:55 | 42.22210 | -7.05443 | 27448 ft | 429 kts | 285° |
| 2026-05-06 02:55 | 42.22970 | -7.09333 | 27183 ft | 430 kts | 285° |
| 2026-05-06 02:56 | 42.23737 | -7.13240 | 26920 ft | 431 kts | 286° |
| 2026-05-06 02:56 | 42.24505 | -7.17156 | 26658 ft | 432 kts | 286° |
| 2026-05-06 02:56 | 42.25269 | -7.21081 | 26401 ft | 433 kts | 285° |
| 2026-05-06 02:56 | 42.26028 | -7.25005 | 25733 ft | 432 kts | 286° |
| 2026-05-06 02:57 | 42.26779 | -7.28899 | 24619 ft | 423 kts | 286° |
| 2026-05-06 02:57 | 42.27512 | -7.32700 | 23683 ft | 417 kts | 286° |
| 2026-05-06 02:57 | 42.28243 | -7.36487 | 22806 ft | 415 kts | 286° |
| 2026-05-06 02:57 | 42.28967 | -7.40240 | 22074 ft | 411 kts | 286° |
| 2026-05-06 02:58 | 42.29682 | -7.43974 | 21336 ft | 408 kts | 286° |
| 2026-05-06 02:58 | 42.30386 | -7.47670 | 20637 ft | 405 kts | 286° |
| 2026-05-06 02:58 | 42.31085 | -7.51346 | 19950 ft | 403 kts | 286° |
| 2026-05-06 02:58 | 42.31779 | -7.54998 | 19275 ft | 401 kts | 286° |
| 2026-05-06 02:59 | 42.32471 | -7.58635 | 18629 ft | 398 kts | 286° |
| 2026-05-06 02:59 | 42.33158 | -7.62259 | 17936 ft | 396 kts | 285° |
| 2026-05-06 02:59 | 42.33838 | -7.65853 | 17330 ft | 392 kts | 285° |
| 2026-05-06 02:59 | 42.34510 | -7.69392 | 16759 ft | 387 kts | 285° |
| 2026-05-06 03:00 | 42.35178 | -7.72907 | 16191 ft | 383 kts | 285° |
| 2026-05-06 03:00 | 42.35835 | -7.76380 | 15663 ft | 380 kts | 285° |
| 2026-05-06 03:00 | 42.36484 | -7.79817 | 15134 ft | 376 kts | 285° |
| 2026-05-06 03:00 | 42.37126 | -7.83231 | 14622 ft | 373 kts | 285° |
| 2026-05-06 03:01 | 42.37761 | -7.86617 | 14085 ft | 370 kts | 284° |
| 2026-05-06 03:01 | 42.38391 | -7.89984 | 13498 ft | 368 kts | 284° |
| 2026-05-06 03:01 | 42.39018 | -7.93332 | 12917 ft | 365 kts | 284° |
| 2026-05-06 03:01 | 42.39637 | -7.96645 | 12345 ft | 362 kts | 285° |
| 2026-05-06 03:02 | 42.40252 | -7.99945 | 11729 ft | 361 kts | 285° |
| 2026-05-06 03:02 | 42.40862 | -8.03227 | 11208 ft | 356 kts | 285° |
| 2026-05-06 03:02 | 42.41449 | -8.06400 | 11087 ft | 339 kts | 285° |
| 2026-05-06 03:02 | 42.41992 | -8.09344 | 10949 ft | 313 kts | 285° |
| 2026-05-06 03:03 | 42.42502 | -8.12100 | 10723 ft | 294 kts | 285° |
| 2026-05-06 03:03 | 42.42993 | -8.14743 | 10358 ft | 286 kts | 285° |
| 2026-05-06 03:03 | 42.43476 | -8.17348 | 10115 ft | 284 kts | 285° |
| 2026-05-06 03:03 | 42.43953 | -8.19935 | 9948 ft | 283 kts | 285° |
| 2026-05-06 03:04 | 42.44429 | -8.22524 | 9808 ft | 283 kts | 285° |
| 2026-05-06 03:04 | 42.44905 | -8.25113 | 9676 ft | 283 kts | 285° |
| 2026-05-06 03:04 | 42.45378 | -8.27689 | 9545 ft | 282 kts | 285° |
| 2026-05-06 03:04 | 42.45851 | -8.30267 | 9409 ft | 282 kts | 285° |
| 2026-05-06 03:05 | 42.46324 | -8.32847 | 9161 ft | 283 kts | 285° |
| 2026-05-06 03:05 | 42.46797 | -8.35429 | 8640 ft | 278 kts | 285° |
| 2026-05-06 03:05 | 42.47242 | -8.37875 | 8444 ft | 259 kts | 285° |
| 2026-05-06 03:05 | 42.47665 | -8.40208 | 7974 ft | 252 kts | 285° |
| 2026-05-06 03:06 | 42.48080 | -8.42500 | 7524 ft | 247 kts | 285° |
| 2026-05-06 03:06 | 42.48473 | -8.44671 | 7392 ft | 228 kts | 286° |
| 2026-05-06 03:06 | 42.48842 | -8.46707 | 7013 ft | 223 kts | 286° |
| 2026-05-06 03:06 | 42.49220 | -8.48778 | 6420 ft | 230 kts | 285° |
| 2026-05-06 03:07 | 42.49371 | -8.50960 | 5774 ft | 238 kts | 266° |
| 2026-05-06 03:07 | 42.48937 | -8.53136 | 5215 ft | 242 kts | 245° |
| 2026-05-06 03:07 | 42.47960 | -8.54920 | 4982 ft | 231 kts | 224° |
| 2026-05-06 03:07 | 42.46666 | -8.56093 | 4834 ft | 218 kts | 204° |
| 2026-05-06 03:08 | 42.45273 | -8.56646 | 4737 ft | 205 kts | 192° |
| 2026-05-06 03:08 | 42.43921 | -8.57015 | 4637 ft | 191 kts | 192° |
| 2026-05-06 03:08 | 42.42643 | -8.57366 | 4528 ft | 186 kts | 192° |
| 2026-05-06 03:08 | 42.41381 | -8.57712 | 4316 ft | 184 kts | 192° |
| 2026-05-06 03:09 | 42.40133 | -8.58054 | 4069 ft | 182 kts | 192° |
| 2026-05-06 03:09 | 42.38886 | -8.58395 | 3828 ft | 182 kts | 192° |
| 2026-05-06 03:09 | 42.37655 | -8.58731 | 3583 ft | 179 kts | 192° |
| 2026-05-06 03:09 | 42.36440 | -8.59063 | 3338 ft | 176 kts | 191° |
| 2026-05-06 03:10 | 42.35244 | -8.59390 | 3101 ft | 174 kts | 191° |
| 2026-05-06 03:10 | 42.34069 | -8.59711 | 2856 ft | 169 kts | 191° |
| 2026-05-06 03:10 | 42.32937 | -8.60020 | 2619 ft | 162 kts | 191° |
| 2026-05-06 03:10 | 42.31859 | -8.60314 | 2410 ft | 153 kts | 191° |
| 2026-05-06 03:11 | 42.30829 | -8.60595 | 2186 ft | 149 kts | 191° |
| 2026-05-06 03:11 | 42.29829 | -8.60868 | 1971 ft | 145 kts | 191° |
| 2026-05-06 03:11 | 42.28847 | -8.61136 | 1775 ft | 143 kts | 191° |
| 2026-05-06 03:11 | 42.27873 | -8.61401 | 1589 ft | 142 kts | 191° |
| 2026-05-06 03:12 | 42.26904 | -8.61665 | 1407 ft | 142 kts | 191° |
| 2026-05-06 03:12 | 42.25935 | -8.61929 | 1220 ft | 142 kts | 191° |
| 2026-05-06 03:12 | 42.24967 | -8.62192 | 1034 ft | 142 kts | 191° |
| 2026-05-06 03:12 | 42.23998 | -8.62456 | 851 ft | 140 kts | 191° |
| 2026-05-06 03:13 | 42.23215 | -8.62668 | 843 ft | 75 kts | 191° |
| 2026-05-06 03:13 | 42.22992 | -8.62731 | 843 ft | 4 kts | 192° |
| 2026-05-06 03:13 | 42.22923 | -8.62751 | 840 ft | 11 kts | 192° |
| 2026-05-06 03:13 | 42.22850 | -8.62772 | 842 ft | 11 kts | 192° |
| 2026-05-06 03:14 | 42.22775 | -8.62793 | 839 ft | 11 kts | 192° |
| 2026-05-06 03:14 | 42.22705 | -8.62814 | 842 ft | 10 kts | 192° |
| 2026-05-06 03:14 | 42.22643 | -8.62831 | 834 ft | 8 kts | 192° |
| 2026-05-06 03:14 | 42.22590 | -8.62847 | 837 ft | 8 kts | 192° |
| 2026-05-06 03:15 | 42.22530 | -8.62864 | 841 ft | 9 kts | 192° |
| 2026-05-06 03:15 | 42.22453 | -8.62885 | 835 ft | 13 kts | 191° |
| 2026-05-06 03:15 | 42.22347 | -8.62912 | 838 ft | 16 kts | 191° |
| 2026-05-06 03:15 | 42.22234 | -8.62941 | 842 ft | 18 kts | 191° |
| 2026-05-06 03:16 | 42.22143 | -8.63026 | 840 ft | 13 kts | 236° |
| 2026-05-06 03:16 | 42.22117 | -8.63127 | 843 ft | 11 kts | 279° |
| 2026-05-06 03:16 | 42.22165 | -8.63164 | 843 ft | 8 kts | 1° |
| 2026-05-06 03:16 | 42.22213 | -8.63161 | 843 ft | 6 kts | 6° |
| 2026-05-06 03:17 | 42.22251 | -8.63156 | 834 ft | 5 kts | 5° |
| 2026-05-06 03:17 | 42.22283 | -8.63169 | 834 ft | 8 kts | 318° |
| 2026-05-06 03:17 | 42.22328 | -8.63191 | 843 ft | 7 kts | 44° |
| 2026-05-06 03:17 | 42.22357 | -8.63149 | 839 ft | 2 kts | 18° |
| 2026-05-06 03:18 | 42.22370 | -8.63160 | 835 ft | 1 kts | 320° |
| 2026-05-06 03:18 | 42.22376 | -8.63173 | 839 ft | 1 kts | 292° |
| 2026-05-06 03:18 | 42.22378 | -8.63183 | 833 ft | 1 kts | 285° |
| 2026-05-06 03:18 | 42.22379 | -8.63189 | 834 ft | 1 kts | 285° |
| 2026-05-06 03:19 | 42.22381 | -8.63202 | 840 ft | 2 kts | 282° |
| 2026-05-06 03:19 | 42.22381 | -8.63204 | 840 ft | 0 kts | 282° |